Whitewood, Canada
Current Conditions -  °F | °C
As of 4:00 AM on Thursday 29 Jan 2015 (Local Time) from CYQV Reporting Station
Overcast Overcast  
Wind Chill: -12°   Ceiling: 1500
Heat Index:   Visibility: 9mi
Dew Point:   Wind: 18mph
Humidity: 85%   Direction: 320°NW
Pressure: 30.41"   Gusts: NA
Location:  50.33°N, 102.25°W
Report Text: CYQV 291000Z AUTO 32016KT 9SM OVC015 M14/M16 A3041 RMK SLP340
Loading
Personal Weather Stations






























Interactive Weather Map New forecast layout! Learn more

10-Day Weather Forecast

Advertisements
Track Severe Weather on mobile